createdAt,value
2022-11-06T00:00:40.995Z,53.21
2022-11-06T00:01:42.866Z,53.23
2022-11-06T00:02:45.242Z,53.21
2022-11-06T00:03:47.075Z,53.09
2022-11-06T00:04:48.902Z,53.03
2022-11-06T00:05:50.798Z,53.04
2022-11-06T00:06:52.592Z,52.96
2022-11-06T00:07:54.435Z,52.95
2022-11-06T00:08:56.261Z,52.93
2022-11-06T00:09:58.101Z,52.86
2022-11-06T00:11:00.098Z,52.85
2022-11-06T00:12:02.136Z,52.82
2022-11-06T00:13:03.958Z,52.77
2022-11-06T00:14:05.769Z,52.80
2022-11-06T00:15:07.599Z,52.90
2022-11-06T00:16:09.565Z,53.00
2022-11-06T00:17:11.388Z,53.00
2022-11-06T00:18:13.427Z,53.03
2022-11-06T00:19:15.479Z,53.06
2022-11-06T00:20:17.313Z,53.00
2022-11-06T00:21:19.171Z,52.91
2022-11-06T00:22:20.989Z,52.95
2022-11-06T00:23:22.826Z,52.93
2022-11-06T00:24:24.678Z,52.95
2022-11-06T00:25:26.525Z,52.89
2022-11-06T00:26:28.395Z,52.82
2022-11-06T00:27:30.253Z,52.87
2022-11-06T00:28:32.079Z,52.97
2022-11-06T00:29:33.894Z,52.97
2022-11-06T00:30:35.828Z,53.01
2022-11-06T00:31:37.693Z,52.97
2022-11-06T00:32:39.518Z,52.94
2022-11-06T00:33:41.375Z,52.98
2022-11-06T00:34:43.187Z,52.90
2022-11-06T00:35:45.004Z,52.88
2022-11-06T00:36:46.989Z,52.84
2022-11-06T00:37:48.817Z,52.84
2022-11-06T00:38:50.649Z,52.86
2022-11-06T00:39:52.472Z,52.84
2022-11-06T00:40:54.406Z,52.86
2022-11-06T00:41:56.263Z,52.77
2022-11-06T00:42:58.172Z,52.75
2022-11-06T00:43:59.998Z,52.77
2022-11-06T00:45:01.933Z,52.80
2022-11-06T00:46:03.853Z,52.83
2022-11-06T00:47:05.758Z,52.83
2022-11-06T00:48:07.589Z,52.82
2022-11-06T00:49:09.424Z,52.75
2022-11-06T00:50:11.359Z,52.73
2022-11-06T00:51:13.184Z,52.77
2022-11-06T00:52:15.052Z,52.85
2022-11-06T00:53:16.891Z,52.91
2022-11-06T00:54:18.711Z,52.88
2022-11-06T00:55:20.526Z,52.89
2022-11-06T00:56:22.360Z,52.85
2022-11-06T00:57:24.238Z,52.88
2022-11-06T00:58:26.203Z,52.88
2022-11-06T00:59:28.048Z,52.93
2022-11-06T01:00:29.970Z,52.92
2022-11-06T01:01:32.028Z,52.86
2022-11-06T01:02:34.113Z,52.86
2022-11-06T01:03:36.305Z,52.84
2022-11-06T01:04:38.125Z,52.78
2022-11-06T01:05:39.941Z,52.70
2022-11-06T01:06:41.874Z,52.67
2022-11-06T01:07:43.753Z,52.65
2022-11-06T01:08:45.571Z,52.68
2022-11-06T01:09:47.541Z,52.63
2022-11-06T01:10:49.469Z,52.60
2022-11-06T01:12:54.983Z,52.55
2022-11-06T01:13:56.907Z,52.51
2022-11-06T01:14:58.733Z,52.50
2022-11-06T01:16:00.558Z,52.55
2022-11-06T01:17:02.409Z,52.52
2022-11-06T01:18:04.288Z,52.53
2022-11-06T01:19:06.114Z,52.59
2022-11-06T01:20:08.362Z,52.68
2022-11-06T01:21:10.187Z,52.71
2022-11-06T01:22:12.019Z,52.68
2022-11-06T01:23:13.901Z,52.62
2022-11-06T01:24:15.769Z,52.60
2022-11-06T01:25:17.637Z,52.59
2022-11-06T01:26:36.822Z,52.56
2022-11-06T01:27:27.246Z,52.51
2022-11-06T01:28:26.816Z,52.57
2022-11-06T01:29:28.752Z,52.55
2022-11-06T01:30:30.680Z,52.54
2022-11-06T01:31:32.524Z,52.55
2022-11-06T01:32:34.362Z,52.59
2022-11-06T01:33:36.216Z,52.59
2022-11-06T01:34:38.036Z,52.65
2022-11-06T01:35:39.851Z,52.59
2022-11-06T01:36:41.781Z,52.64
2022-11-06T01:37:43.589Z,52.65
2022-11-06T01:38:45.467Z,52.69
2022-11-06T01:39:47.293Z,52.82
2022-11-06T01:40:49.099Z,52.86
2022-11-06T01:41:50.825Z,52.88
2022-11-06T01:42:52.618Z,52.85
2022-11-06T01:43:54.460Z,52.77
2022-11-06T01:44:56.666Z,52.69
2022-11-06T01:45:58.480Z,52.67
2022-11-06T01:47:00.859Z,52.66
2022-11-06T01:48:03.057Z,52.64
2022-11-06T01:49:04.915Z,52.66
2022-11-06T01:50:07.059Z,52.70
2022-11-06T01:51:09.909Z,52.64
2022-11-06T01:52:11.758Z,52.60
2022-11-06T01:53:13.575Z,52.80
2022-11-06T01:54:15.619Z,52.80
2022-11-06T01:55:17.416Z,52.64
2022-11-06T01:56:19.753Z,52.65
2022-11-06T01:57:21.569Z,52.67
2022-11-06T01:58:23.400Z,52.69
2022-11-06T01:59:25.653Z,52.64
2022-11-06T02:00:28.536Z,52.65
2022-11-06T02:01:30.413Z,52.72
2022-11-06T02:02:32.625Z,52.73
2022-11-06T02:03:34.502Z,52.71
2022-11-06T02:04:36.624Z,52.68
2022-11-06T02:05:38.435Z,52.64
2022-11-06T02:06:40.329Z,52.63
2022-11-06T02:07:42.126Z,52.59
2022-11-06T02:08:44.041Z,52.57
2022-11-06T02:09:46.454Z,52.55
2022-11-06T02:10:48.383Z,52.58
2022-11-06T02:11:50.214Z,52.69
2022-11-06T02:12:52.243Z,52.74
2022-11-06T02:13:54.415Z,52.69
2022-11-06T02:14:56.606Z,52.68
2022-11-06T02:15:58.529Z,52.67
2022-11-06T02:17:00.342Z,52.58
2022-11-06T02:18:02.171Z,52.54
2022-11-06T02:19:04.003Z,52.58
2022-11-06T02:20:06.038Z,52.57
2022-11-06T02:21:07.872Z,52.52
2022-11-06T02:22:10.741Z,52.53
2022-11-06T02:23:13.163Z,52.55
2022-11-06T02:24:14.986Z,52.58
2022-11-06T02:25:17.237Z,52.58
2022-11-06T02:26:19.037Z,52.54
2022-11-06T02:27:21.887Z,52.60
2022-11-06T02:28:24.756Z,52.40
2022-11-06T02:29:26.942Z,52.44
2022-11-06T02:30:28.929Z,52.37
2022-11-06T02:31:30.832Z,52.39
2022-11-06T02:32:32.638Z,52.40
2022-11-06T02:33:34.989Z,52.42
2022-11-06T02:34:38.839Z,52.46
2022-11-06T02:35:40.701Z,52.49
2022-11-06T02:36:42.650Z,52.51
2022-11-06T02:37:44.456Z,52.49
2022-11-06T02:38:46.247Z,52.54
2022-11-06T02:39:48.084Z,52.56
2022-11-06T02:40:49.927Z,52.53
2022-11-06T02:41:52.028Z,52.52
2022-11-06T02:42:53.845Z,52.53
2022-11-06T02:43:56.231Z,52.55
2022-11-06T02:44:58.068Z,52.53
2022-11-06T02:46:00.828Z,52.48
2022-11-06T02:47:02.709Z,52.45
2022-11-06T02:48:04.525Z,52.46
2022-11-06T02:49:06.865Z,52.50
2022-11-06T02:50:09.300Z,52.55
2022-11-06T02:51:11.135Z,52.53
2022-11-06T02:52:13.298Z,52.54
2022-11-06T02:53:15.462Z,52.46
2022-11-06T02:54:17.263Z,52.39
2022-11-06T02:55:19.079Z,52.37
2022-11-06T02:56:20.915Z,52.38
2022-11-06T02:57:23.891Z,52.36
2022-11-06T02:58:26.713Z,52.36
2022-11-06T02:59:28.953Z,52.30
2022-11-06T03:00:30.877Z,52.28
2022-11-06T03:01:33.203Z,52.25
2022-11-06T03:02:35.251Z,52.20
2022-11-06T03:03:37.484Z,52.20
2022-11-06T03:04:39.851Z,52.20
2022-11-06T03:05:41.676Z,52.19
2022-11-06T03:06:43.935Z,52.13
2022-11-06T03:07:45.764Z,52.09
2022-11-06T03:08:47.589Z,52.04
2022-11-06T03:09:49.399Z,52.01
2022-11-06T03:10:51.319Z,52.00
2022-11-06T03:11:53.486Z,51.95
2022-11-06T03:12:55.326Z,51.90
2022-11-06T03:13:57.154Z,51.86
2022-11-06T03:14:58.985Z,51.85
2022-11-06T03:16:00.825Z,51.80
2022-11-06T03:17:02.652Z,51.77
2022-11-06T03:18:04.827Z,51.78
2022-11-06T03:19:07.081Z,51.78
2022-11-06T03:20:10.665Z,51.77
2022-11-06T03:21:13.521Z,51.77
2022-11-06T03:22:15.391Z,51.73
2022-11-06T03:23:17.206Z,51.73
2022-11-06T03:24:19.009Z,51.69
2022-11-06T03:25:20.808Z,51.72
2022-11-06T03:26:22.607Z,51.76
2022-11-06T03:27:25.511Z,51.77
2022-11-06T03:28:27.317Z,51.77
2022-11-06T03:29:29.643Z,51.77
2022-11-06T03:30:31.809Z,51.77
2022-11-06T03:31:33.614Z,51.72
2022-11-06T03:32:36.035Z,51.74
2022-11-06T03:33:39.972Z,51.74
2022-11-06T03:34:42.400Z,51.76
2022-11-06T03:35:45.814Z,51.75
2022-11-06T03:36:48.846Z,51.74
2022-11-06T03:37:50.694Z,51.76
2022-11-06T03:38:52.785Z,51.80
2022-11-06T03:39:54.944Z,51.80
2022-11-06T03:40:56.782Z,51.80
2022-11-06T03:41:58.617Z,51.77
2022-11-06T03:43:00.485Z,51.76
2022-11-06T03:44:02.671Z,51.77
2022-11-06T03:45:04.519Z,51.83
2022-11-06T03:46:06.548Z,51.86
2022-11-06T03:47:08.383Z,51.91
2022-11-06T03:48:11.249Z,51.94
2022-11-06T03:49:13.566Z,51.92
2022-11-06T03:50:16.710Z,51.95
2022-11-06T03:51:18.552Z,52.00
2022-11-06T03:52:20.352Z,51.96
2022-11-06T03:53:22.203Z,51.94
2022-11-06T03:54:24.184Z,51.91
2022-11-06T03:55:26.001Z,51.85
2022-11-06T03:56:27.818Z,51.80
2022-11-06T03:57:29.628Z,51.82
2022-11-06T03:58:31.591Z,51.90
2022-11-06T03:59:33.473Z,51.89
2022-11-06T04:00:35.299Z,51.93
2022-11-06T04:01:37.189Z,51.96
2022-11-06T04:02:39.148Z,51.94
2022-11-06T04:03:41.056Z,51.88
2022-11-06T04:04:42.911Z,51.92
2022-11-06T04:05:44.735Z,51.99
2022-11-06T04:06:46.578Z,52.04
2022-11-06T04:07:48.385Z,52.11
2022-11-06T04:08:50.245Z,52.07
2022-11-06T04:09:52.060Z,52.05
2022-11-06T04:10:53.986Z,52.07
2022-11-06T04:11:55.789Z,52.13
2022-11-06T04:12:57.623Z,52.10
2022-11-06T04:13:59.396Z,52.09
2022-11-06T04:15:01.222Z,52.17
2022-11-06T04:16:03.140Z,52.25
2022-11-06T04:17:04.992Z,52.28
2022-11-06T04:18:06.807Z,52.26
2022-11-06T04:19:08.685Z,52.25
2022-11-06T04:20:11.595Z,52.20
2022-11-06T04:21:13.423Z,52.21
2022-11-06T04:22:15.232Z,52.16
2022-11-06T04:23:17.065Z,52.11
2022-11-06T04:24:18.931Z,52.15
2022-11-06T04:25:20.743Z,52.12
2022-11-06T04:26:22.664Z,52.14
2022-11-06T04:27:24.486Z,52.17
2022-11-06T04:28:26.328Z,52.15
2022-11-06T04:29:28.187Z,52.08
2022-11-06T04:30:30.105Z,52.06
2022-11-06T04:31:31.934Z,52.03
2022-11-06T04:32:33.771Z,51.99
2022-11-06T04:33:35.580Z,51.96
2022-11-06T04:34:37.483Z,51.99
2022-11-06T04:35:39.316Z,51.96
2022-11-06T04:36:41.150Z,51.90
2022-11-06T04:37:42.997Z,51.89
2022-11-06T04:38:44.801Z,51.86
2022-11-06T04:39:46.665Z,51.83
2022-11-06T04:41:37.586Z,51.96
2022-11-06T04:42:39.425Z,51.92
2022-11-06T04:43:41.258Z,51.89
2022-11-06T04:44:43.117Z,51.99
2022-11-06T04:45:44.970Z,52.09
2022-11-06T04:46:46.804Z,52.15
2022-11-06T04:47:48.627Z,52.22
2022-11-06T04:48:50.456Z,52.33
2022-11-06T04:49:52.303Z,52.38
2022-11-06T04:50:54.386Z,52.44
2022-11-06T04:51:56.239Z,52.45
2022-11-06T04:52:58.067Z,52.55
2022-11-06T04:53:59.884Z,52.73
2022-11-06T04:55:01.732Z,52.87
2022-11-06T04:56:03.608Z,52.88
2022-11-06T04:57:05.417Z,52.91
2022-11-06T04:58:07.232Z,52.91
2022-11-06T04:59:09.060Z,53.01
2022-11-06T05:00:11.293Z,53.08
2022-11-06T05:01:13.190Z,53.07
2022-11-06T05:02:15.069Z,53.11
2022-11-06T05:03:16.940Z,53.13
2022-11-06T05:04:18.764Z,53.14
2022-11-06T05:05:20.589Z,53.14
2022-11-06T05:06:26.997Z,53.17
2022-11-06T05:07:26.136Z,53.25
2022-11-06T05:08:27.964Z,53.34
2022-11-06T05:09:29.793Z,53.37
2022-11-06T05:10:31.603Z,53.44
2022-11-06T05:11:33.475Z,53.48
2022-11-06T05:12:35.299Z,53.52
2022-11-06T05:13:37.119Z,53.56
2022-11-06T05:14:38.927Z,53.70
2022-11-06T05:15:40.736Z,53.70
2022-11-06T05:16:42.613Z,53.75
2022-11-06T05:17:44.438Z,53.76
2022-11-06T05:18:46.252Z,53.78
2022-11-06T05:19:48.065Z,53.79
2022-11-06T05:20:49.903Z,53.75
2022-11-06T05:21:51.898Z,53.65
2022-11-06T05:22:53.726Z,53.65
2022-11-06T05:23:55.543Z,53.85
2022-11-06T05:24:57.377Z,53.94
2022-11-06T05:25:59.223Z,53.90
2022-11-06T05:27:01.082Z,53.89
2022-11-06T05:28:02.904Z,54.00
2022-11-06T05:29:04.806Z,54.11
2022-11-06T05:30:06.775Z,54.17
2022-11-06T05:31:11.640Z,54.25
2022-11-06T05:32:13.549Z,54.25
2022-11-06T05:33:15.377Z,54.24
2022-11-06T05:34:17.187Z,54.33
2022-11-06T05:35:19.004Z,54.41
2022-11-06T05:36:20.820Z,54.40
2022-11-06T05:37:22.775Z,54.42
2022-11-06T05:38:24.587Z,54.47
2022-11-06T05:39:26.403Z,54.47
2022-11-06T05:40:28.222Z,54.46
2022-11-06T05:41:30.040Z,54.42
2022-11-06T05:42:31.940Z,54.38
2022-11-06T05:43:33.756Z,54.45
2022-11-06T05:44:35.572Z,54.44
2022-11-06T05:45:37.406Z,54.46
2022-11-06T05:46:54.605Z,54.39
2022-11-06T05:47:42.894Z,54.54
2022-11-06T05:48:44.704Z,54.58
2022-11-06T05:49:46.512Z,54.62
2022-11-06T05:50:48.324Z,54.70
2022-11-06T05:51:50.149Z,54.70
2022-11-06T05:52:52.110Z,54.68
2022-11-06T05:53:53.930Z,54.64
2022-11-06T05:54:55.742Z,54.58
2022-11-06T05:55:57.568Z,54.52
2022-11-06T05:56:59.488Z,54.47
2022-11-06T05:58:01.348Z,54.45
2022-11-06T05:59:03.168Z,54.36
2022-11-06T06:00:05.095Z,54.34
2022-11-06T06:01:06.901Z,54.29
2022-11-06T06:02:08.815Z,54.29
2022-11-06T06:03:10.867Z,54.34
2022-11-06T06:04:12.741Z,54.30
2022-11-06T06:05:14.560Z,54.31
2022-11-06T06:06:16.384Z,54.34
2022-11-06T06:07:18.206Z,54.28
2022-11-06T06:08:20.104Z,54.31
2022-11-06T06:09:21.917Z,54.32
2022-11-06T06:10:23.791Z,54.29
2022-11-06T06:11:25.561Z,54.18
2022-11-06T06:12:27.419Z,54.13
2022-11-06T06:13:29.433Z,54.13
2022-11-06T06:14:31.288Z,54.12
2022-11-06T06:15:33.123Z,54.18
2022-11-06T06:16:34.964Z,54.17
2022-11-06T06:17:36.791Z,54.18
2022-11-06T06:18:40.250Z,54.20
2022-11-06T06:19:42.087Z,54.25
2022-11-06T06:20:43.910Z,54.25
2022-11-06T06:21:45.844Z,54.27
2022-11-06T06:22:47.684Z,54.26
2022-11-06T06:23:49.710Z,54.31
2022-11-06T06:24:51.575Z,54.41
2022-11-06T06:25:53.437Z,54.42
2022-11-06T06:28:16.675Z,54.39
2022-11-06T06:29:18.542Z,54.38
2022-11-06T06:30:22.589Z,54.39
2022-11-06T06:31:24.433Z,54.45
2022-11-06T06:32:26.836Z,54.51
2022-11-06T06:33:29.076Z,54.50
2022-11-06T06:34:31.338Z,54.45
2022-11-06T06:35:35.420Z,54.52
2022-11-06T06:36:37.475Z,54.53
2022-11-06T06:37:39.311Z,54.51
2022-11-06T06:38:41.124Z,54.55
2022-11-06T06:39:42.997Z,54.59
2022-11-06T06:40:44.807Z,54.60
2022-11-06T06:41:46.609Z,54.64
2022-11-06T06:42:49.026Z,54.66
2022-11-06T06:43:50.824Z,54.59
2022-11-06T06:44:52.675Z,54.51
2022-11-06T06:45:54.468Z,54.35
2022-11-06T06:46:56.923Z,54.27
2022-11-06T06:47:58.942Z,54.30
2022-11-06T06:49:01.882Z,54.33
2022-11-06T06:50:03.847Z,54.27
2022-11-06T06:51:05.676Z,54.26
2022-11-06T06:52:07.514Z,54.29
2022-11-06T06:53:09.324Z,54.27
2022-11-06T06:54:11.145Z,54.18
2022-11-06T06:55:13.056Z,54.13
2022-11-06T06:56:14.903Z,54.01
2022-11-06T06:57:16.761Z,54.03
2022-11-06T06:58:18.608Z,54.08
2022-11-06T06:59:20.418Z,54.04
2022-11-06T07:00:22.398Z,53.96
2022-11-06T07:01:24.402Z,54.10
2022-11-06T07:02:26.524Z,54.17
2022-11-06T07:03:28.347Z,54.22
2022-11-06T07:04:30.172Z,54.22
2022-11-06T07:05:32.030Z,54.39
2022-11-06T07:06:33.858Z,54.31
2022-11-06T07:07:35.681Z,54.13
2022-11-06T07:08:37.491Z,54.09
2022-11-06T07:09:39.303Z,54.00
2022-11-06T07:10:41.291Z,53.96
2022-11-06T07:11:43.130Z,53.94
2022-11-06T07:12:44.938Z,53.93
2022-11-06T07:13:46.762Z,53.90
2022-11-06T07:14:48.584Z,53.88
2022-11-06T07:15:50.459Z,53.85
2022-11-06T07:16:53.914Z,53.88
2022-11-06T07:17:55.983Z,53.87
2022-11-06T07:18:57.803Z,53.85
2022-11-06T07:19:59.625Z,53.91
2022-11-06T07:21:01.500Z,53.97
2022-11-06T07:22:03.336Z,53.93
2022-11-06T07:23:05.153Z,53.88
2022-11-06T07:24:07.287Z,53.92
2022-11-06T07:25:09.125Z,53.95
2022-11-06T07:26:12.024Z,53.93
2022-11-06T07:27:13.843Z,53.86
2022-11-06T07:28:16.129Z,53.79
2022-11-06T07:29:18.140Z,53.71
2022-11-06T07:30:20.041Z,53.66
2022-11-06T07:31:21.899Z,53.64
2022-11-06T07:32:23.718Z,53.61
2022-11-06T07:33:25.529Z,53.55
2022-11-06T07:34:27.364Z,53.51
2022-11-06T07:35:29.205Z,53.43
2022-11-06T07:36:31.064Z,53.37
2022-11-06T07:37:32.886Z,53.44
2022-11-06T07:38:34.720Z,53.43
2022-11-06T07:39:36.559Z,53.38
2022-11-06T07:40:38.377Z,53.38
2022-11-06T07:41:41.864Z,53.46
2022-11-06T07:42:43.967Z,53.59
2022-11-06T07:43:45.851Z,53.63
2022-11-06T07:44:47.730Z,53.67
2022-11-06T07:45:49.558Z,53.70
2022-11-06T07:46:51.434Z,53.71
2022-11-06T07:47:58.897Z,53.71
2022-11-06T07:48:56.919Z,53.70
2022-11-06T07:49:58.736Z,53.68
2022-11-06T07:51:00.558Z,53.65
2022-11-06T07:52:02.425Z,53.64
2022-11-06T07:53:04.442Z,53.57
2022-11-06T07:54:06.316Z,53.57
2022-11-06T07:55:08.156Z,53.53
2022-11-06T07:56:11.211Z,53.57
2022-11-06T07:57:13.140Z,53.66
2022-11-06T07:58:15.296Z,53.73
2022-11-06T07:59:17.500Z,53.78
2022-11-06T08:00:19.426Z,53.76
2022-11-06T08:01:21.369Z,53.78
2022-11-06T08:02:23.527Z,53.72
2022-11-06T08:03:25.390Z,53.65
2022-11-06T08:04:27.203Z,53.64
2022-11-06T08:05:29.016Z,53.67
2022-11-06T08:06:30.936Z,53.65
2022-11-06T08:07:32.812Z,53.65
2022-11-06T08:08:34.667Z,53.59
2022-11-06T08:09:36.479Z,53.48
2022-11-06T08:10:38.297Z,53.53
2022-11-06T08:11:40.136Z,53.60
2022-11-06T08:12:42.030Z,53.66
2022-11-06T08:13:43.865Z,53.64
2022-11-06T08:14:45.695Z,53.67
2022-11-06T08:15:47.544Z,53.73
2022-11-06T08:16:49.384Z,53.24
2022-11-06T08:17:51.250Z,53.24
2022-11-06T08:18:53.069Z,53.39
2022-11-06T08:19:54.886Z,53.36
2022-11-06T08:20:56.738Z,53.39
2022-11-06T08:21:58.584Z,53.17
2022-11-06T08:23:02.024Z,53.17
2022-11-06T08:24:03.864Z,53.61
2022-11-06T08:25:05.692Z,53.52
2022-11-06T08:26:07.835Z,53.52
2022-11-06T08:27:09.678Z,53.46
2022-11-06T08:28:12.009Z,53.32
2022-11-06T08:29:14.087Z,53.31
2022-11-06T08:30:15.904Z,53.29
2022-11-06T08:31:17.743Z,53.26
2022-11-06T08:32:19.571Z,53.25
2022-11-06T08:33:21.455Z,53.22
2022-11-06T08:34:23.262Z,53.21
2022-11-06T08:35:25.105Z,53.25
2022-11-06T08:36:26.949Z,53.20
2022-11-06T08:37:28.766Z,53.11
2022-11-06T08:38:30.639Z,53.03
2022-11-06T08:39:32.455Z,53.03
2022-11-06T08:40:34.392Z,52.95
2022-11-06T08:41:36.199Z,52.79
2022-11-06T08:42:38.025Z,52.75
2022-11-06T08:43:39.904Z,52.71
2022-11-06T08:44:41.747Z,52.67
2022-11-06T08:45:43.614Z,52.56
2022-11-06T08:46:51.614Z,52.65
2022-11-06T08:47:49.229Z,52.77
2022-11-06T08:48:51.097Z,52.70
2022-11-06T08:49:52.929Z,52.70
2022-11-06T08:50:54.746Z,52.94
2022-11-06T08:51:56.559Z,52.97
2022-11-06T08:52:58.384Z,53.03
2022-11-06T08:54:00.357Z,53.00
2022-11-06T08:55:02.194Z,52.99
2022-11-06T08:56:04.139Z,53.05
2022-11-06T08:57:05.961Z,53.11
2022-11-06T08:58:07.818Z,53.25
2022-11-06T08:59:09.701Z,53.25
2022-11-06T09:00:12.154Z,53.26
2022-11-06T09:01:14.049Z,53.10
2022-11-06T09:02:15.969Z,52.90
2022-11-06T09:03:18.226Z,52.84
2022-11-06T09:04:20.257Z,52.77
2022-11-06T09:05:22.091Z,52.78
2022-11-06T09:06:23.915Z,52.63
2022-11-06T09:07:26.916Z,52.55
2022-11-06T09:08:29.811Z,52.49
2022-11-06T09:09:31.680Z,52.51
2022-11-06T09:10:33.510Z,52.60
2022-11-06T09:11:35.329Z,52.59
2022-11-06T09:12:37.134Z,52.66
2022-11-06T09:13:38.975Z,52.73
2022-11-06T09:14:41.264Z,52.79
2022-11-06T09:15:43.080Z,52.78
2022-11-06T09:16:45.063Z,52.66
2022-11-06T09:17:47.480Z,52.54
2022-11-06T09:18:49.546Z,52.50
2022-11-06T09:19:52.080Z,52.53
2022-11-06T09:20:54.242Z,52.45
2022-11-06T09:21:56.077Z,52.41
2022-11-06T09:22:58.909Z,52.40
2022-11-06T09:24:00.743Z,52.34
2022-11-06T09:25:04.316Z,52.29
2022-11-06T09:26:06.557Z,52.12
2022-11-06T09:27:08.874Z,51.96
2022-11-06T09:28:10.822Z,51.83
2022-11-06T09:29:12.620Z,51.65
2022-11-06T09:30:14.764Z,51.55
2022-11-06T09:31:17.002Z,51.60
2022-11-06T09:32:18.855Z,51.54
2022-11-06T09:33:21.106Z,51.36
2022-11-06T09:34:23.869Z,51.27
2022-11-06T09:35:25.760Z,51.16
2022-11-06T09:36:27.791Z,51.14
2022-11-06T09:37:30.392Z,51.14
2022-11-06T09:38:32.695Z,51.08
2022-11-06T09:39:35.031Z,51.07
2022-11-06T09:40:37.585Z,51.07
2022-11-06T09:41:39.478Z,51.03
2022-11-06T09:42:41.293Z,50.94
2022-11-06T09:44:04.125Z,50.85
2022-11-06T09:44:47.934Z,50.85
2022-11-06T09:45:54.870Z,50.97
2022-11-06T09:46:54.873Z,51.02
2022-11-06T09:47:57.958Z,50.90
2022-11-06T09:49:00.228Z,50.88
2022-11-06T09:50:02.124Z,50.86
2022-11-06T09:51:04.207Z,50.82
2022-11-06T09:52:06.576Z,50.73
2022-11-06T09:53:09.012Z,50.78
2022-11-06T09:54:12.218Z,50.71
2022-11-06T09:55:16.261Z,50.56
2022-11-06T09:56:18.259Z,50.32
2022-11-06T09:57:20.101Z,50.01
2022-11-06T09:58:22.220Z,49.95
2022-11-06T09:59:24.625Z,49.93
2022-11-06T10:00:26.588Z,49.82
2022-11-06T10:01:28.722Z,49.88
2022-11-06T10:02:30.723Z,49.85
2022-11-06T10:03:33.133Z,49.83
2022-11-06T10:04:35.560Z,49.70
2022-11-06T10:05:38.009Z,49.63
2022-11-06T10:06:41.027Z,49.36
2022-11-06T10:07:42.884Z,49.20
2022-11-06T10:08:44.996Z,49.06
2022-11-06T10:09:47.205Z,48.92
2022-11-06T10:10:50.357Z,48.85
2022-11-06T10:11:52.442Z,48.82
2022-11-06T10:12:54.284Z,48.67
2022-11-06T10:13:56.300Z,48.52
2022-11-06T10:14:58.318Z,48.35
2022-11-06T10:16:00.836Z,48.24
2022-11-06T10:17:02.741Z,48.17
2022-11-06T10:18:04.958Z,48.08
2022-11-06T10:19:06.793Z,47.97
2022-11-06T10:20:08.859Z,47.85
2022-11-06T10:21:11.052Z,47.60
2022-11-06T10:22:13.032Z,47.34
2022-11-06T10:23:14.837Z,47.23
2022-11-06T10:24:18.944Z,47.25
2022-11-06T10:25:20.797Z,47.25
2022-11-06T10:26:22.911Z,47.20
2022-11-06T10:27:25.201Z,47.29
2022-11-06T10:28:27.057Z,47.43
2022-11-06T10:29:28.882Z,47.46
2022-11-06T10:30:30.768Z,47.41
2022-11-06T10:31:34.682Z,47.47
2022-11-06T10:32:37.614Z,47.46
2022-11-06T10:33:39.464Z,47.37
2022-11-06T10:34:41.329Z,47.29
2022-11-06T10:35:43.142Z,47.30
2022-11-06T10:36:49.542Z,47.38
2022-11-06T10:37:48.635Z,47.48
2022-11-06T10:38:51.663Z,47.55
2022-11-06T10:39:53.500Z,47.57
2022-11-06T10:40:57.457Z,47.42
2022-11-06T10:41:59.317Z,47.46
2022-11-06T10:43:06.160Z,47.48
2022-11-06T10:44:08.485Z,47.50
2022-11-06T10:45:10.841Z,47.48
2022-11-06T10:46:13.279Z,47.53
2022-11-06T10:47:15.094Z,47.50
2022-11-06T10:48:17.117Z,47.58
2022-11-06T10:49:21.594Z,47.74
2022-11-06T10:50:23.812Z,47.74
2022-11-06T10:51:25.660Z,47.77
2022-11-06T10:52:27.494Z,47.71
2022-11-06T10:53:29.607Z,47.64
2022-11-06T10:54:31.993Z,47.45
2022-11-06T10:55:33.829Z,47.46
2022-11-06T10:56:35.752Z,47.51
2022-11-06T10:57:37.944Z,47.49
2022-11-06T10:58:39.824Z,47.35
2022-11-06T10:59:41.848Z,47.30
2022-11-06T11:00:44.020Z,47.35
2022-11-06T11:01:45.987Z,47.36
2022-11-06T11:02:48.045Z,47.21
2022-11-06T11:03:51.782Z,47.05
2022-11-06T11:04:57.762Z,47.06
2022-11-06T11:05:58.363Z,47.07
2022-11-06T11:07:01.286Z,47.00
2022-11-06T11:08:03.094Z,46.90
2022-11-06T11:09:06.101Z,46.77
2022-11-06T11:10:09.389Z,46.82
2022-11-06T11:11:12.307Z,46.89
2022-11-06T11:12:14.160Z,46.78
2022-11-06T11:13:16.488Z,46.58
2022-11-06T11:14:18.725Z,46.54
2022-11-06T11:15:20.577Z,46.65
2022-11-06T11:16:22.438Z,46.63
2022-11-06T11:17:25.109Z,46.78
2022-11-06T11:18:26.955Z,46.62
2022-11-06T11:19:28.865Z,46.61
2022-11-06T11:20:30.716Z,46.56
2022-11-06T11:21:32.523Z,46.63
2022-11-06T11:22:34.417Z,46.66
2022-11-06T11:23:36.275Z,46.59
2022-11-06T11:24:38.168Z,46.57
2022-11-06T11:25:39.994Z,46.54
2022-11-06T11:26:41.837Z,46.48
2022-11-06T11:27:43.680Z,46.45
2022-11-06T11:28:45.505Z,46.59
2022-11-06T11:29:47.363Z,46.38
2022-11-06T11:30:49.297Z,46.36
2022-11-06T11:31:51.139Z,46.33
2022-11-06T11:32:52.979Z,46.29
2022-11-06T11:33:54.902Z,46.19
2022-11-06T11:34:58.979Z,46.19
2022-11-06T11:36:01.155Z,46.16
2022-11-06T11:37:03.025Z,46.24
2022-11-06T11:38:04.813Z,46.33
2022-11-06T11:39:06.642Z,46.29
2022-11-06T11:40:13.356Z,46.37
2022-11-06T11:41:12.980Z,46.34
2022-11-06T11:42:14.820Z,46.25
2022-11-06T11:43:16.672Z,46.39
2022-11-06T11:44:18.599Z,46.53
2022-11-06T11:45:20.475Z,46.56
2022-11-06T11:46:24.680Z,46.51
2022-11-06T11:47:26.557Z,46.44
2022-11-06T11:48:28.409Z,46.33
2022-11-06T11:49:30.316Z,46.31
2022-11-06T11:50:33.463Z,46.30
2022-11-06T11:51:35.301Z,46.42
2022-11-06T11:52:37.214Z,46.40
2022-11-06T11:53:39.026Z,46.44
2022-11-06T11:54:40.844Z,46.38
2022-11-06T11:55:42.739Z,46.33
2022-11-06T11:57:03.614Z,46.35
2022-11-06T11:57:48.210Z,46.37
2022-11-06T11:58:50.058Z,46.42
2022-11-06T11:59:51.873Z,46.46
2022-11-06T12:00:53.835Z,46.46
2022-11-06T12:01:55.845Z,46.37
2022-11-06T12:02:57.956Z,46.46
2022-11-06T12:03:59.829Z,46.42
2022-11-06T12:05:01.751Z,46.43
2022-11-06T12:06:03.739Z,46.52
2022-11-06T12:07:05.639Z,46.54
2022-11-06T12:08:07.491Z,46.46
2022-11-06T12:09:09.340Z,46.49
2022-11-06T12:10:11.637Z,46.44
2022-11-06T12:11:13.600Z,46.32
2022-11-06T12:12:15.405Z,46.23
2022-11-06T12:13:17.209Z,46.08
2022-11-06T12:14:19.059Z,45.91
2022-11-06T12:15:20.912Z,45.89
2022-11-06T12:16:22.895Z,46.19
2022-11-06T12:17:24.751Z,45.88
2022-11-06T12:18:26.593Z,45.83
2022-11-06T12:19:28.448Z,45.79
2022-11-06T12:20:30.416Z,45.75
2022-11-06T12:21:32.278Z,45.73
2022-11-06T12:22:34.100Z,45.80
2022-11-06T12:23:35.947Z,45.88
2022-11-06T12:24:37.765Z,45.87
2022-11-06T12:25:39.619Z,45.88
2022-11-06T12:26:41.500Z,45.97
2022-11-06T12:27:43.333Z,45.99
2022-11-06T12:28:45.180Z,45.92
2022-11-06T12:29:47.003Z,45.77
2022-11-06T12:30:48.832Z,45.80
2022-11-06T12:31:50.706Z,45.89
2022-11-06T12:32:52.550Z,45.92
2022-11-06T12:34:14.460Z,45.92
2022-11-06T12:34:58.037Z,45.85
2022-11-06T12:35:59.913Z,45.67
2022-11-06T12:37:01.794Z,45.54
2022-11-06T12:38:03.634Z,45.64
2022-11-06T12:39:05.470Z,45.67
2022-11-06T12:40:07.607Z,45.60
2022-11-06T12:41:09.439Z,45.57
2022-11-06T12:42:11.317Z,45.45
2022-11-06T12:43:13.121Z,45.37
2022-11-06T12:44:14.951Z,45.36
2022-11-06T12:45:16.798Z,45.29
2022-11-06T12:46:18.628Z,45.21
2022-11-06T12:47:25.317Z,45.15
2022-11-06T12:48:24.161Z,45.13
2022-11-06T12:49:25.989Z,45.15
2022-11-06T12:50:27.839Z,45.19
2022-11-06T12:51:29.678Z,45.20
2022-11-06T12:52:33.135Z,45.24
2022-11-06T12:53:34.993Z,45.28
2022-11-06T12:54:36.816Z,45.29
2022-11-06T12:55:38.649Z,45.23
2022-11-06T12:56:40.602Z,45.11
2022-11-06T12:57:42.465Z,45.14
2022-11-06T12:58:44.293Z,45.10
2022-11-06T12:59:46.132Z,45.03
2022-11-06T13:00:48.077Z,44.98
2022-11-06T13:01:50.001Z,44.93
2022-11-06T13:02:51.968Z,44.92
2022-11-06T13:03:53.801Z,44.94
2022-11-06T13:04:55.651Z,45.01
2022-11-06T13:05:57.482Z,45.09
2022-11-06T13:07:00.506Z,45.04
2022-11-06T13:08:02.388Z,45.08
2022-11-06T13:09:04.220Z,45.14
2022-11-06T13:10:06.366Z,45.18
2022-11-06T13:11:08.187Z,45.17
2022-11-06T13:12:10.395Z,45.18
2022-11-06T13:13:15.140Z,45.22
2022-11-06T13:14:15.904Z,45.33
2022-11-06T13:15:17.737Z,45.26
2022-11-06T13:16:19.586Z,45.32
2022-11-06T13:17:21.399Z,45.33
2022-11-06T13:18:23.276Z,45.36
2022-11-06T13:19:25.135Z,45.42
2022-11-06T13:20:26.965Z,45.35
2022-11-06T13:21:28.788Z,45.35
2022-11-06T13:22:30.707Z,45.36